createdAt,value
2022-10-17T00:00:52.402Z,99.99
2022-10-17T00:01:52.449Z,99.99
2022-10-17T00:02:52.388Z,99.99
2022-10-17T00:03:52.364Z,99.99
2022-10-17T00:04:52.351Z,99.99
2022-10-17T00:05:52.344Z,99.99
2022-10-17T00:06:52.327Z,99.99
2022-10-17T00:07:52.313Z,99.99
2022-10-17T00:08:52.310Z,99.99
2022-10-17T00:09:52.282Z,99.99
2022-10-17T00:10:52.278Z,99.99
2022-10-17T00:11:52.257Z,99.99
2022-10-17T00:12:52.246Z,99.99
2022-10-17T00:13:52.241Z,99.99
2022-10-17T00:14:52.235Z,99.99
2022-10-17T00:15:52.210Z,99.99
2022-10-17T00:16:52.199Z,99.99
2022-10-17T00:17:52.183Z,99.99
2022-10-17T00:18:52.179Z,99.99
2022-10-17T00:19:52.157Z,99.99
2022-10-17T00:20:52.160Z,99.99
2022-10-17T00:21:52.138Z,99.99
2022-10-17T00:22:52.119Z,99.99
2022-10-17T00:23:52.109Z,99.99
2022-10-17T00:24:52.090Z,99.99
2022-10-17T00:25:52.081Z,99.99
2022-10-17T00:26:52.082Z,99.99
2022-10-17T00:27:52.053Z,99.99
2022-10-17T00:28:52.114Z,99.99
2022-10-17T00:29:52.031Z,99.99
2022-10-17T00:30:52.014Z,99.99
2022-10-17T00:31:52.007Z,99.99
2022-10-17T00:32:51.997Z,99.99
2022-10-17T00:33:51.978Z,99.99
2022-10-17T00:34:51.972Z,99.99
2022-10-17T00:35:51.951Z,99.82
2022-10-17T00:36:51.941Z,99.92
2022-10-17T00:37:51.925Z,99.41
2022-10-17T00:38:51.942Z,99.52
2022-10-17T00:39:51.899Z,99.32
2022-10-17T00:40:51.919Z,99.21
2022-10-17T00:41:51.875Z,99.11
2022-10-17T00:42:51.865Z,99.37
2022-10-17T00:43:51.851Z,98.96
2022-10-17T00:44:51.862Z,98.76
2022-10-17T00:45:51.823Z,98.76
2022-10-17T00:46:51.812Z,98.46
2022-10-17T00:47:51.798Z,98.36
2022-10-17T00:48:51.786Z,98.36
2022-10-17T00:49:51.806Z,98.05
2022-10-17T00:50:51.774Z,98.25
2022-10-17T00:51:51.755Z,98.16
2022-10-17T00:52:51.733Z,97.96
2022-10-17T00:53:51.722Z,97.96
2022-10-17T00:54:51.715Z,97.96
2022-10-17T00:55:51.708Z,97.85
2022-10-17T00:56:51.706Z,97.80
2022-10-17T00:57:51.679Z,97.75
2022-10-17T00:58:51.661Z,97.91
2022-10-17T00:59:51.657Z,97.71
2022-10-17T01:00:51.639Z,97.71
2022-10-17T01:01:51.619Z,97.50
2022-10-17T01:02:51.622Z,97.80
2022-10-17T01:03:51.599Z,97.30
2022-10-17T01:04:51.585Z,97.40
2022-10-17T01:05:51.575Z,97.40
2022-10-17T01:06:51.557Z,97.40
2022-10-17T01:07:51.550Z,97.10
2022-10-17T01:08:51.548Z,97.20
2022-10-17T01:09:51.519Z,97.05
2022-10-17T01:10:51.509Z,96.85
2022-10-17T01:11:51.493Z,96.45
2022-10-17T01:12:51.489Z,96.25
2022-10-17T01:13:51.474Z,96.14
2022-10-17T01:14:51.465Z,96.14
2022-10-17T01:15:51.445Z,96.04
2022-10-17T01:16:51.427Z,95.94
2022-10-17T01:17:51.418Z,95.94
2022-10-17T01:18:51.408Z,96.14
2022-10-17T01:19:51.395Z,96.25
2022-10-17T01:20:51.403Z,96.14
2022-10-17T01:21:51.368Z,95.94
2022-10-17T01:22:51.356Z,95.79
2022-10-17T01:23:51.345Z,95.59
2022-10-17T01:24:51.332Z,95.59
2022-10-17T01:25:51.316Z,95.29
2022-10-17T01:26:51.316Z,95.19
2022-10-17T01:27:51.294Z,95.09
2022-10-17T01:28:51.277Z,94.79
2022-10-17T01:29:51.265Z,94.99
2022-10-17T01:30:51.252Z,94.79
2022-10-17T01:31:51.239Z,94.54
2022-10-17T01:32:51.242Z,94.54
2022-10-17T01:33:51.215Z,94.48
2022-10-17T01:34:51.197Z,94.38
2022-10-17T01:35:51.194Z,94.44
2022-10-17T01:36:51.178Z,94.04
2022-10-17T01:37:54.194Z,93.84
2022-10-17T01:38:51.156Z,93.73
2022-10-17T01:39:51.138Z,93.73
2022-10-17T01:40:51.129Z,93.63
2022-10-17T01:41:51.125Z,93.53
2022-10-17T01:42:51.096Z,93.63
2022-10-17T01:43:51.082Z,93.63
2022-10-17T01:44:51.082Z,93.73
2022-10-17T01:45:51.059Z,93.84
2022-10-17T01:46:51.113Z,93.84
2022-10-17T01:47:51.029Z,93.84
2022-10-17T01:48:51.022Z,93.84
2022-10-17T01:49:51.003Z,93.73
2022-10-17T01:50:51.001Z,93.63
2022-10-17T01:51:50.988Z,93.29
2022-10-17T01:52:50.967Z,93.18
2022-10-17T01:53:50.948Z,93.08
2022-10-17T01:54:50.934Z,93.23
2022-10-17T01:55:50.982Z,93.13
2022-10-17T01:56:50.927Z,93.13
2022-10-17T01:57:50.900Z,92.98
2022-10-17T01:58:50.897Z,92.98
2022-10-17T01:59:50.877Z,92.78
2022-10-17T02:00:50.860Z,92.68
2022-10-17T02:01:51.064Z,92.68
2022-10-17T02:02:50.845Z,92.68
2022-10-17T02:03:50.819Z,92.58
2022-10-17T02:04:50.816Z,92.47
2022-10-17T02:05:50.797Z,92.58
2022-10-17T02:06:50.807Z,92.68
2022-10-17T02:07:50.770Z,92.38
2022-10-17T02:08:50.768Z,92.07
2022-10-17T02:09:50.741Z,92.07
2022-10-17T02:10:50.730Z,92.07
2022-10-17T02:11:50.720Z,91.73
2022-10-17T02:12:50.707Z,91.73
2022-10-17T02:13:50.691Z,91.63
2022-10-17T02:14:50.691Z,91.73
2022-10-17T02:15:56.677Z,91.73
2022-10-17T02:16:50.659Z,91.73
2022-10-17T02:17:50.636Z,91.33
2022-10-17T02:18:50.631Z,91.13
2022-10-17T02:19:50.620Z,91.22
2022-10-17T02:20:50.613Z,91.33
2022-10-17T02:21:50.605Z,91.42
2022-10-17T02:22:50.581Z,91.53
2022-10-17T02:23:50.561Z,91.67
2022-10-17T02:24:50.552Z,91.53
2022-10-17T02:25:50.541Z,91.77
2022-10-17T02:26:50.571Z,91.77
2022-10-17T02:27:50.517Z,91.77
2022-10-17T02:28:50.582Z,91.63
2022-10-17T02:29:50.489Z,91.53
2022-10-17T02:30:50.467Z,91.42
2022-10-17T02:31:50.457Z,91.42
2022-10-17T02:32:50.583Z,91.42
2022-10-17T02:33:50.431Z,91.53
2022-10-17T02:34:50.419Z,91.57
2022-10-17T02:35:50.408Z,91.87
2022-10-17T02:36:50.392Z,91.97
2022-10-17T02:37:50.377Z,91.97
2022-10-17T02:38:50.388Z,91.87
2022-10-17T02:39:50.353Z,91.87
2022-10-17T02:40:50.340Z,92.07
2022-10-17T02:41:50.327Z,91.97
2022-10-17T02:42:50.326Z,92.07
2022-10-17T02:43:50.308Z,91.97
2022-10-17T02:44:50.292Z,91.97
2022-10-17T02:45:50.271Z,91.97
2022-10-17T02:46:50.278Z,91.87
2022-10-17T02:47:50.248Z,91.47
2022-10-17T02:48:50.245Z,91.33
2022-10-17T02:49:50.226Z,91.02
2022-10-17T02:50:50.225Z,91.02
2022-10-17T02:51:50.215Z,91.02
2022-10-17T02:52:50.194Z,91.17
2022-10-17T02:53:50.179Z,91.02
2022-10-17T02:54:50.159Z,90.92
2022-10-17T02:55:50.155Z,90.92
2022-10-17T02:56:50.143Z,90.82
2022-10-17T02:57:50.119Z,90.82
2022-10-17T02:58:50.111Z,90.72
2022-10-17T02:59:50.100Z,90.62
2022-10-17T03:00:50.141Z,90.62
2022-10-17T03:01:50.064Z,90.52
2022-10-17T03:02:50.075Z,90.42
2022-10-17T03:03:50.049Z,90.42
2022-10-17T03:04:50.030Z,90.52
2022-10-17T03:05:50.018Z,90.62
2022-10-17T03:06:49.999Z,90.72
2022-10-17T03:07:49.987Z,90.82
2022-10-17T03:08:49.989Z,90.77
2022-10-17T03:09:49.980Z,90.77
2022-10-17T03:10:49.955Z,90.52
2022-10-17T03:11:49.933Z,90.52
2022-10-17T03:12:49.917Z,90.42
2022-10-17T03:13:49.908Z,90.52
2022-10-17T03:14:49.911Z,90.42
2022-10-17T03:15:49.884Z,90.11
2022-10-17T03:16:49.870Z,90.22
2022-10-17T03:17:49.865Z,90.22
2022-10-17T03:18:50.290Z,90.32
2022-10-17T03:19:49.859Z,90.32
2022-10-17T03:20:49.824Z,90.42
2022-10-17T03:21:49.839Z,90.66
2022-10-17T03:22:49.794Z,90.52
2022-10-17T03:23:49.792Z,90.52
2022-10-17T03:24:49.767Z,90.52
2022-10-17T03:25:49.757Z,90.52
2022-10-17T03:26:49.772Z,90.52
2022-10-17T03:27:49.726Z,90.62
2022-10-17T03:28:53.474Z,90.32
2022-10-17T03:29:49.715Z,90.22
2022-10-17T03:30:49.689Z,89.91
2022-10-17T03:31:49.686Z,89.81
2022-10-17T03:32:49.691Z,90.01
2022-10-17T03:33:49.652Z,89.91
2022-10-17T03:34:49.639Z,90.01
2022-10-17T03:36:49.615Z,89.81
2022-10-17T03:37:49.607Z,89.71
2022-10-17T03:38:49.614Z,89.71
2022-10-17T03:39:49.580Z,89.71
2022-10-17T03:40:49.570Z,89.81
2022-10-17T03:41:49.551Z,89.81
2022-10-17T03:42:49.549Z,90.01
2022-10-17T03:43:49.532Z,90.01
2022-10-17T03:44:49.528Z,89.91
2022-10-17T03:45:49.501Z,89.91
2022-10-17T03:46:49.498Z,89.81
2022-10-17T03:47:49.480Z,89.61
2022-10-17T03:48:49.463Z,89.71
2022-10-17T03:49:49.444Z,89.71
2022-10-17T03:50:49.443Z,89.51
2022-10-17T03:51:49.421Z,89.51
2022-10-17T03:52:49.408Z,89.41
2022-10-17T03:53:49.404Z,89.41
2022-10-17T03:54:49.392Z,89.41
2022-10-17T03:55:49.369Z,89.41
2022-10-17T03:56:49.479Z,89.61
2022-10-17T03:57:49.358Z,89.61
2022-10-17T03:58:49.347Z,89.61
2022-10-17T03:59:49.330Z,89.71
2022-10-17T04:00:49.306Z,89.71
2022-10-17T04:01:49.317Z,89.71
2022-10-17T04:02:49.320Z,89.81
2022-10-17T04:03:49.270Z,89.91
2022-10-17T04:04:49.282Z,89.71
2022-10-17T04:05:49.247Z,89.61
2022-10-17T04:06:49.244Z,89.51
2022-10-17T04:07:49.221Z,89.51
2022-10-17T04:08:49.223Z,89.71
2022-10-17T04:09:49.187Z,89.86
2022-10-17T04:10:49.187Z,89.81
2022-10-17T04:11:49.163Z,89.95
2022-10-17T04:12:49.165Z,89.95
2022-10-17T04:13:49.150Z,89.95
2022-10-17T04:14:49.152Z,89.81
2022-10-17T04:15:49.117Z,89.61
2022-10-17T04:16:49.125Z,89.61
2022-10-17T04:17:49.113Z,89.61
2022-10-17T04:18:49.077Z,89.61
2022-10-17T04:19:49.069Z,89.51
2022-10-17T04:20:49.066Z,89.51
2022-10-17T04:21:49.047Z,89.41
2022-10-17T04:22:49.040Z,89.31
2022-10-17T04:23:49.008Z,89.21
2022-10-17T04:24:49.006Z,89.31
2022-10-17T04:25:48.981Z,89.21
2022-10-17T04:26:48.988Z,89.11
2022-10-17T04:27:49.018Z,89.21
2022-10-17T04:28:48.952Z,89.11
2022-10-17T04:29:48.952Z,89.01
2022-10-17T04:30:50.992Z,89.01
2022-10-17T04:31:48.917Z,88.90
2022-10-17T04:32:48.909Z,88.70
2022-10-17T04:33:48.884Z,88.70
2022-10-17T04:34:48.860Z,88.81
2022-10-17T04:35:48.865Z,88.81
2022-10-17T04:36:48.841Z,88.81
2022-10-17T04:37:48.821Z,88.81
2022-10-17T04:38:48.873Z,89.01
2022-10-17T04:39:48.835Z,89.21
2022-10-17T04:40:48.784Z,88.90
2022-10-17T04:41:48.782Z,88.60
2022-10-17T04:42:48.774Z,88.50
2022-10-17T04:43:51.161Z,88.50
2022-10-17T04:44:48.746Z,88.26
2022-10-17T04:45:48.736Z,88.30
2022-10-17T04:46:48.716Z,88.16
2022-10-17T04:47:48.707Z,88.06
2022-10-17T04:48:48.715Z,88.06
2022-10-17T04:49:48.684Z,88.10
2022-10-17T04:50:48.691Z,88.30
2022-10-17T04:51:48.652Z,88.20
2022-10-17T04:52:48.636Z,88.06
2022-10-17T04:53:48.657Z,88.06
2022-10-17T04:54:48.607Z,88.06
2022-10-17T04:55:48.609Z,88.30
2022-10-17T04:56:48.596Z,88.30
2022-10-17T04:57:48.573Z,88.30
2022-10-17T04:58:48.567Z,88.30
2022-10-17T04:59:48.550Z,88.30
2022-10-17T05:00:48.562Z,88.30
2022-10-17T05:01:48.522Z,88.30
2022-10-17T05:02:48.524Z,88.10
2022-10-17T05:03:48.496Z,87.96
2022-10-17T05:04:48.492Z,87.85
2022-10-17T05:05:48.466Z,87.85
2022-10-17T05:06:48.450Z,87.76
2022-10-17T05:07:48.441Z,87.55
2022-10-17T05:08:48.448Z,87.35
2022-10-17T05:09:48.422Z,87.25
2022-10-17T05:10:48.459Z,87.25
2022-10-17T05:11:48.396Z,87.35
2022-10-17T05:12:48.378Z,87.45
2022-10-17T05:13:48.368Z,87.45
2022-10-17T05:14:48.366Z,87.55
2022-10-17T05:15:48.361Z,87.60
2022-10-17T05:16:48.321Z,87.60
2022-10-17T05:17:48.336Z,87.55
2022-10-17T05:18:52.638Z,87.60
2022-10-17T05:19:48.288Z,87.70
2022-10-17T05:20:48.250Z,87.60
2022-10-17T05:21:48.214Z,87.70
2022-10-17T05:22:48.227Z,87.55
2022-10-17T05:23:48.238Z,87.45
2022-10-17T05:24:48.226Z,87.49
2022-10-17T05:25:48.205Z,87.49
2022-10-17T05:26:48.164Z,87.60
2022-10-17T05:27:48.131Z,87.60
2022-10-17T05:28:48.168Z,87.70
2022-10-17T05:29:48.106Z,87.70
2022-10-17T05:30:48.099Z,87.60
2022-10-17T05:31:48.095Z,87.49
2022-10-17T05:32:48.103Z,87.29
2022-10-17T05:33:48.055Z,87.40
2022-10-17T05:34:48.044Z,87.15
2022-10-17T05:35:48.033Z,87.19
2022-10-17T05:36:48.019Z,87.29
2022-10-17T05:37:48.017Z,87.19
2022-10-17T05:38:48.005Z,87.05
2022-10-17T05:39:51.341Z,87.05
2022-10-17T05:40:47.968Z,87.15
2022-10-17T05:41:47.971Z,87.15
2022-10-17T05:42:47.968Z,86.95
2022-10-17T05:43:47.931Z,86.85
2022-10-17T05:44:47.958Z,86.75
2022-10-17T05:45:47.910Z,86.75
2022-10-17T05:46:47.890Z,86.85
2022-10-17T05:47:47.875Z,86.65
2022-10-17T05:48:47.864Z,86.65
2022-10-17T05:49:51.480Z,86.65
2022-10-17T05:50:47.846Z,86.65
2022-10-17T05:51:47.836Z,86.65
2022-10-17T05:52:47.809Z,86.55
2022-10-17T05:53:47.794Z,86.55
2022-10-17T05:54:47.798Z,86.55
2022-10-17T05:55:47.773Z,86.55
2022-10-17T05:56:47.782Z,86.65
2022-10-17T05:57:47.750Z,86.65
2022-10-17T05:58:53.366Z,86.65
2022-10-17T05:59:47.757Z,86.75
2022-10-17T06:00:47.717Z,86.75
2022-10-17T06:01:47.730Z,86.85
2022-10-17T06:02:47.707Z,86.75
2022-10-17T06:03:47.669Z,86.75
2022-10-17T06:04:47.663Z,86.55
2022-10-17T06:05:47.683Z,86.55
2022-10-17T06:06:47.630Z,86.55
2022-10-17T06:07:47.638Z,86.35
2022-10-17T06:08:47.639Z,86.35
2022-10-17T06:09:47.601Z,86.35
2022-10-17T06:10:47.587Z,86.24
2022-10-17T06:11:47.561Z,86.15
2022-10-17T06:12:47.551Z,86.15
2022-10-17T06:13:47.538Z,86.15
2022-10-17T06:14:47.577Z,86.15
2022-10-17T06:15:47.535Z,86.04
2022-10-17T06:16:47.509Z,85.94
2022-10-17T06:17:47.489Z,85.84
2022-10-17T06:19:47.468Z,85.60
2022-10-17T06:20:47.477Z,85.40
2022-10-17T06:21:47.438Z,85.60
2022-10-17T06:22:47.435Z,85.30
2022-10-17T06:23:47.417Z,85.40
2022-10-17T06:24:47.421Z,85.30
2022-10-17T06:25:47.389Z,85.20
2022-10-17T06:26:47.421Z,85.10
2022-10-17T06:27:47.400Z,84.85
2022-10-17T06:28:47.451Z,84.80
2022-10-17T06:29:47.340Z,85.20
2022-10-17T06:30:47.329Z,85.20
2022-10-17T06:31:47.311Z,85.40
2022-10-17T06:32:47.319Z,85.20
2022-10-17T06:33:47.306Z,85.40
2022-10-17T06:34:47.283Z,85.30
2022-10-17T06:35:47.258Z,85.70
2022-10-17T06:36:47.303Z,85.84
2022-10-17T06:37:47.264Z,86.04
2022-10-17T06:38:47.279Z,86.15
2022-10-17T06:39:47.234Z,86.24
2022-10-17T06:40:47.237Z,86.15
2022-10-17T06:41:47.211Z,86.24
2022-10-17T06:42:47.180Z,86.24
2022-10-17T06:43:47.190Z,86.24
2022-10-17T06:44:47.236Z,86.04
2022-10-17T06:45:47.220Z,86.04
2022-10-17T06:46:47.152Z,85.84
2022-10-17T06:47:47.131Z,85.84
2022-10-17T06:48:47.108Z,85.84
2022-10-17T06:49:47.126Z,85.70
2022-10-17T06:50:47.383Z,85.70
2022-10-17T06:51:47.689Z,85.60
2022-10-17T06:52:47.079Z,85.60
2022-10-17T06:53:47.037Z,85.50
2022-10-17T06:54:47.057Z,85.40
2022-10-17T06:55:47.033Z,85.30
2022-10-17T06:56:47.056Z,85.20
2022-10-17T06:57:47.004Z,85.20
2022-10-17T06:58:47.022Z,85.10
2022-10-17T06:59:46.982Z,84.89
2022-10-17T07:00:47.246Z,84.59
2022-10-17T07:01:47.286Z,84.65
2022-10-17T07:02:47.282Z,84.65
2022-10-17T07:03:46.935Z,84.35
2022-10-17T07:04:49.734Z,84.15
2022-10-17T07:05:46.897Z,83.95
2022-10-17T07:06:47.175Z,83.84
2022-10-17T07:07:51.010Z,83.65
2022-10-17T07:08:46.891Z,83.51
2022-10-17T07:09:46.871Z,83.31
2022-10-17T07:10:46.819Z,83.20
2022-10-17T07:11:46.813Z,83.11
2022-10-17T07:12:46.804Z,83.00
2022-10-17T07:13:46.901Z,83.00
2022-10-17T07:14:46.782Z,82.90
2022-10-17T07:15:46.798Z,82.80
2022-10-17T07:16:46.756Z,82.70
2022-10-17T07:17:46.749Z,82.80
2022-10-17T07:18:46.727Z,82.80
2022-10-17T07:19:46.724Z,82.80
2022-10-17T07:20:46.714Z,82.46
2022-10-17T07:21:46.683Z,82.60
2022-10-17T07:22:46.665Z,82.30
2022-10-17T07:23:46.657Z,82.56
2022-10-17T07:24:46.696Z,82.26
2022-10-17T07:25:46.665Z,82.16
2022-10-17T07:26:46.941Z,82.16
2022-10-17T07:27:46.615Z,81.85
2022-10-17T07:28:46.722Z,81.56
2022-10-17T07:29:47.187Z,81.65
2022-10-17T07:30:50.604Z,81.41
2022-10-17T07:31:46.572Z,80.91
2022-10-17T07:32:46.553Z,80.91
2022-10-17T07:34:46.525Z,80.61
2022-10-17T07:35:46.549Z,80.57
2022-10-17T07:36:46.479Z,79.87
2022-10-17T07:37:46.475Z,79.97
2022-10-17T07:38:46.488Z,79.67
2022-10-17T07:39:46.447Z,79.23
2022-10-17T07:40:46.440Z,79.13
2022-10-17T07:41:46.432Z,79.23
2022-10-17T07:42:46.434Z,79.23
2022-10-17T07:43:46.420Z,79.57
2022-10-17T07:44:46.414Z,79.37
2022-10-17T07:45:46.359Z,79.67
2022-10-17T07:46:46.351Z,79.47
2022-10-17T07:47:46.399Z,80.07
2022-10-17T07:48:46.340Z,79.83
2022-10-17T07:49:46.321Z,79.33
2022-10-17T07:50:46.795Z,79.53
2022-10-17T07:52:46.304Z,79.63
2022-10-17T07:53:48.706Z,79.27
2022-10-17T07:54:46.281Z,79.97
2022-10-17T07:55:46.244Z,79.87
2022-10-17T07:56:46.247Z,80.21
2022-10-17T07:57:46.221Z,80.61
2022-10-17T07:58:46.237Z,80.47
2022-10-17T07:59:46.207Z,80.47
2022-10-17T08:00:46.281Z,80.27
2022-10-17T08:01:46.221Z,80.07
2022-10-17T08:02:46.199Z,80.27
2022-10-17T08:03:46.153Z,80.37
2022-10-17T08:04:46.136Z,80.17
2022-10-17T08:05:46.148Z,80.71
2022-10-17T08:06:48.976Z,80.51
2022-10-17T08:07:46.108Z,80.57
2022-10-17T08:08:46.155Z,80.37
2022-10-17T08:09:46.080Z,80.47
2022-10-17T08:10:46.042Z,80.17
2022-10-17T08:11:46.120Z,80.07
2022-10-17T08:12:46.040Z,80.07
2022-10-17T08:13:46.126Z,79.87
2022-10-17T08:14:46.038Z,79.57
2022-10-17T08:15:46.000Z,79.67
2022-10-17T08:16:45.987Z,79.13
2022-10-17T08:17:46.004Z,78.93
2022-10-17T08:18:45.967Z,78.93
2022-10-17T08:19:45.983Z,78.83
2022-10-17T08:20:45.935Z,78.53
2022-10-17T08:21:46.237Z,78.33
2022-10-17T08:22:45.903Z,78.33
2022-10-17T08:23:45.875Z,78.19
2022-10-17T08:24:45.892Z,77.79
2022-10-17T08:25:45.851Z,77.79
2022-10-17T08:26:47.193Z,77.48
2022-10-17T08:27:45.862Z,77.59
2022-10-17T08:28:45.927Z,77.28
2022-10-17T08:29:45.816Z,77.48
2022-10-17T08:30:45.855Z,77.75
2022-10-17T08:31:47.859Z,77.05
2022-10-17T08:32:45.777Z,76.85
2022-10-17T08:33:46.015Z,77.15
2022-10-17T08:34:45.751Z,77.05
2022-10-17T08:35:45.752Z,76.85
2022-10-17T08:36:45.708Z,76.17
2022-10-17T08:37:45.754Z,75.37
2022-10-17T08:38:48.004Z,75.37
2022-10-17T08:39:45.687Z,75.47
2022-10-17T08:40:45.958Z,74.73
2022-10-17T08:41:45.666Z,75.04
2022-10-17T08:42:45.678Z,75.13
2022-10-17T08:43:45.647Z,74.23
2022-10-17T08:44:45.627Z,74.40
2022-10-17T08:45:45.635Z,73.39
2022-10-17T08:46:45.601Z,72.96
2022-10-17T08:47:45.580Z,73.36
2022-10-17T08:48:46.646Z,72.26
2022-10-17T08:49:45.545Z,73.39
2022-10-17T08:50:45.645Z,73.73
2022-10-17T08:51:45.529Z,74.27
2022-10-17T08:52:45.536Z,74.77
2022-10-17T08:53:45.549Z,75.37
2022-10-17T08:54:45.481Z,75.37
2022-10-17T08:55:45.838Z,74.73
2022-10-17T08:56:48.884Z,73.93
2022-10-17T08:57:46.225Z,74.33
2022-10-17T08:58:45.433Z,74.13
2022-10-17T08:59:45.443Z,74.03
2022-10-17T09:00:45.405Z,73.90
2022-10-17T09:01:45.409Z,73.19
2022-10-17T09:02:46.450Z,73.39
2022-10-17T09:03:53.812Z,74.00
2022-10-17T09:04:45.372Z,74.00
2022-10-17T09:05:45.339Z,73.10
2022-10-17T09:06:45.334Z,74.20
2022-10-17T09:08:00.390Z,74.43
2022-10-17T09:08:45.359Z,74.54
2022-10-17T09:09:45.293Z,74.10
2022-10-17T09:10:46.233Z,73.83
2022-10-17T09:11:45.280Z,74.33
2022-10-17T09:12:45.272Z,74.20
2022-10-17T09:13:45.265Z,73.70
2022-10-17T09:14:45.312Z,73.60
2022-10-17T09:15:45.210Z,73.50
2022-10-17T09:16:45.235Z,73.70
2022-10-17T09:17:45.207Z,74.13
2022-10-17T09:18:45.176Z,73.80
2022-10-17T09:19:45.177Z,74.00
2022-10-17T09:20:45.192Z,73.90
2022-10-17T09:21:45.145Z,73.76
2022-10-17T09:22:46.443Z,72.96
2022-10-17T09:23:45.219Z,73.46
2022-10-17T09:24:45.102Z,73.06
2022-10-17T09:25:45.143Z,73.80
2022-10-17T09:26:45.909Z,73.66
2022-10-17T09:27:45.126Z,73.46
2022-10-17T09:28:45.127Z,73.66
2022-10-17T09:29:45.350Z,73.86
2022-10-17T09:30:46.360Z,73.96
2022-10-17T09:31:45.475Z,73.70
2022-10-17T09:32:45.413Z,73.80
2022-10-17T09:33:54.338Z,74.30
2022-10-17T09:34:45.286Z,74.10
2022-10-17T09:35:45.252Z,73.70
2022-10-17T09:36:45.644Z,73.90
2022-10-17T09:37:45.200Z,73.90
2022-10-17T09:38:45.275Z,73.36
2022-10-17T09:39:45.191Z,73.56
2022-10-17T09:40:45.169Z,73.06
2022-10-17T09:41:46.808Z,72.86
2022-10-17T09:42:46.248Z,72.96
2022-10-17T09:43:45.110Z,72.66
2022-10-17T09:44:45.233Z,72.56
2022-10-17T09:45:45.164Z,72.86
2022-10-17T09:46:45.232Z,72.96
2022-10-17T09:47:45.879Z,72.66
2022-10-17T09:48:46.915Z,72.86
2022-10-17T09:49:45.076Z,72.96
2022-10-17T09:50:48.279Z,72.63
2022-10-17T09:51:45.283Z,72.53
2022-10-17T09:52:45.068Z,72.63
2022-10-17T09:53:45.006Z,72.33
2022-10-17T09:54:45.016Z,72.23
2022-10-17T09:55:45.024Z,72.33
2022-10-17T09:56:46.622Z,72.03
2022-10-17T09:57:44.928Z,72.56
2022-10-17T09:58:45.051Z,72.86
2022-10-17T09:59:44.955Z,73.06
2022-10-17T10:00:46.161Z,73.70
2022-10-17T10:01:45.787Z,73.16
2022-10-17T10:02:44.027Z,73.50
2022-10-17T10:03:44.978Z,73.30
2022-10-17T10:05:03.236Z,73.70
2022-10-17T10:05:44.770Z,74.00
2022-10-17T10:06:49.002Z,74.20
2022-10-17T10:07:44.877Z,74.00
2022-10-17T10:08:44.770Z,74.10
2022-10-17T10:09:44.700Z,73.90
2022-10-17T10:10:44.785Z,74.30
2022-10-17T10:11:45.293Z,74.10
2022-10-17T10:12:44.640Z,74.40
2022-10-17T10:13:44.972Z,74.20
2022-10-17T10:14:47.199Z,74.20
2022-10-17T10:15:45.319Z,74.63
2022-10-17T10:16:47.066Z,74.50
2022-10-17T10:17:44.511Z,74.50
2022-10-17T10:18:45.513Z,74.70
2022-10-17T10:19:44.614Z,74.30
2022-10-17T10:20:44.438Z,73.90
2022-10-17T10:21:46.469Z,74.50
2022-10-17T10:22:44.886Z,74.73
2022-10-17T10:23:44.825Z,74.73
2022-10-17T10:24:46.504Z,74.70
2022-10-17T10:25:47.788Z,74.73
2022-10-17T10:26:44.325Z,74.63
2022-10-17T10:27:45.856Z,74.63
2022-10-17T10:28:44.367Z,74.20
2022-10-17T10:29:44.538Z,74.50
2022-10-17T10:30:44.263Z,74.63
2022-10-17T10:31:44.601Z,74.63
2022-10-17T10:32:46.145Z,74.40
2022-10-17T10:33:49.710Z,74.50
2022-10-17T10:34:44.220Z,74.54
2022-10-17T10:35:44.223Z,74.84
2022-10-17T10:36:49.471Z,74.93
2022-10-17T10:37:45.280Z,75.23
2022-10-17T10:38:44.177Z,74.84
2022-10-17T10:39:44.173Z,74.63
2022-10-17T10:40:44.210Z,74.84
2022-10-17T10:41:44.870Z,74.93
2022-10-17T10:42:44.211Z,75.23
2022-10-17T10:43:44.136Z,75.04
2022-10-17T10:44:50.447Z,74.70
2022-10-17T10:45:48.658Z,74.30
2022-10-17T10:46:44.127Z,74.73
2022-10-17T10:47:44.042Z,74.50
2022-10-17T10:48:44.118Z,74.40
2022-10-17T10:49:45.277Z,74.20
2022-10-17T10:50:45.443Z,74.50
2022-10-17T10:51:44.164Z,74.73
2022-10-17T10:52:44.044Z,74.63
2022-10-17T10:53:44.257Z,74.50
2022-10-17T10:54:44.392Z,74.00
2022-10-17T10:55:49.563Z,74.40
2022-10-17T10:56:43.956Z,74.00
2022-10-17T10:57:44.177Z,74.30
2022-10-17T10:58:44.166Z,74.00
2022-10-17T10:59:45.081Z,74.40
2022-10-17T11:00:46.017Z,74.40
2022-10-17T11:01:51.027Z,74.33
2022-10-17T11:02:43.934Z,74.33
2022-10-17T11:03:43.882Z,74.40
2022-10-17T11:04:43.883Z,74.63
2022-10-17T11:05:46.811Z,74.50
2022-10-17T11:06:45.740Z,74.60
2022-10-17T11:07:44.343Z,74.40
2022-10-17T11:08:43.799Z,74.63
2022-10-17T11:10:17.050Z,74.93
2022-10-17T11:10:59.068Z,74.73
2022-10-17T11:11:43.765Z,74.73
2022-10-17T11:13:43.829Z,74.84
2022-10-17T11:14:43.719Z,75.23
2022-10-17T11:15:43.915Z,75.43
2022-10-17T11:16:43.899Z,75.23
2022-10-17T11:17:44.280Z,75.54
2022-10-17T11:18:43.697Z,75.34
2022-10-17T11:19:43.702Z,75.34
2022-10-17T11:20:43.626Z,75.43
2022-10-17T11:21:43.616Z,75.34
2022-10-17T11:22:43.609Z,75.34
2022-10-17T11:23:43.896Z,75.43
2022-10-17T11:24:44.294Z,75.43
2022-10-17T11:25:43.600Z,75.23
2022-10-17T11:26:44.316Z,75.23
2022-10-17T11:27:44.299Z,75.34
2022-10-17T11:28:43.678Z,75.63
2022-10-17T11:29:43.755Z,75.43
2022-10-17T11:31:43.511Z,75.00
2022-10-17T11:32:43.508Z,74.90
2022-10-17T11:33:43.510Z,74.70
2022-10-17T11:34:44.276Z,74.60
2022-10-17T11:35:43.510Z,75.20
2022-10-17T11:36:43.568Z,74.90
2022-10-17T11:37:45.035Z,74.90
2022-10-17T11:38:43.614Z,74.70
2022-10-17T11:39:43.507Z,75.13
2022-10-17T11:40:43.375Z,75.84
2022-10-17T11:41:43.360Z,75.70
2022-10-17T11:42:43.666Z,75.10
2022-10-17T11:43:43.362Z,75.10
2022-10-17T11:44:44.066Z,75.06
2022-10-17T11:45:43.348Z,75.46
2022-10-17T11:46:43.310Z,75.10
2022-10-17T11:47:43.294Z,75.70
2022-10-17T11:48:43.362Z,75.10
2022-10-17T11:49:44.505Z,75.20
2022-10-17T11:52:00.903Z,75.76
2022-10-17T11:52:56.108Z,75.10
2022-10-17T11:53:43.779Z,75.10
2022-10-17T11:54:43.993Z,75.80
2022-10-17T11:55:43.780Z,75.80
2022-10-17T11:56:44.248Z,75.30
2022-10-17T11:57:43.662Z,75.70
2022-10-17T11:58:43.133Z,74.96
2022-10-17T11:59:43.143Z,75.06
2022-10-17T12:00:46.187Z,74.66
2022-10-17T12:01:43.138Z,75.46
2022-10-17T12:02:43.339Z,75.37
2022-10-17T12:03:43.090Z,75.06
2022-10-17T12:04:49.540Z,74.76
2022-10-17T12:05:43.312Z,74.76
2022-10-17T12:06:43.083Z,75.26
2022-10-17T12:08:43.074Z,75.06
2022-10-17T12:09:43.034Z,75.70
2022-10-17T12:10:43.007Z,75.70
2022-10-17T12:11:43.001Z,75.50
2022-10-17T12:12:43.210Z,75.30
2022-10-17T12:13:42.951Z,75.20
2022-10-17T12:14:42.950Z,75.70
2022-10-17T12:15:46.637Z,75.70
2022-10-17T12:17:42.913Z,75.70
2022-10-17T12:18:43.309Z,76.00
2022-10-17T12:19:43.389Z,75.90
2022-10-17T12:20:44.091Z,76.34
2022-10-17T12:21:43.533Z,75.84
2022-10-17T12:22:42.893Z,75.84
2022-10-17T12:23:42.816Z,75.93
2022-10-17T12:24:42.918Z,76.43
2022-10-17T12:25:42.872Z,76.30
2022-10-17T12:26:42.784Z,76.30
2022-10-17T12:27:42.862Z,75.90
2022-10-17T12:28:45.586Z,76.24
2022-10-17T12:29:42.763Z,76.34
2022-10-17T12:30:42.871Z,76.64
2022-10-17T12:31:42.765Z,77.14
2022-10-17T12:33:00.508Z,76.84
2022-10-17T12:33:42.945Z,77.34
2022-10-17T12:34:45.545Z,77.74
2022-10-17T12:35:42.742Z,77.74
2022-10-17T12:36:42.684Z,77.84
2022-10-17T12:37:43.169Z,78.34
2022-10-17T12:38:44.881Z,78.28
2022-10-17T12:39:42.635Z,78.74
2022-10-17T12:40:47.748Z,78.54
2022-10-17T12:41:42.681Z,78.84
2022-10-17T12:42:42.598Z,78.84
2022-10-17T12:43:44.669Z,78.48
2022-10-17T12:44:42.593Z,79.08
2022-10-17T12:45:42.570Z,79.08
2022-10-17T12:46:45.388Z,78.68
2022-10-17T12:47:42.534Z,79.28
2022-10-17T12:48:46.657Z,79.08
2022-10-17T12:49:43.276Z,79.18
2022-10-17T12:50:42.615Z,79.48
2022-10-17T12:51:42.492Z,79.48
2022-10-17T12:52:42.744Z,78.98
2022-10-17T12:53:44.236Z,79.18
2022-10-17T12:54:47.590Z,79.38
2022-10-17T12:55:42.463Z,79.58
2022-10-17T12:56:46.083Z,80.18
2022-10-17T12:57:53.590Z,79.98
2022-10-17T12:58:42.451Z,80.18
2022-10-17T12:59:42.380Z,79.88
2022-10-17T13:00:49.806Z,80.28
2022-10-17T13:01:43.209Z,80.48